createdAt,value
2022-09-05T00:01:39.947Z,17.30
2022-09-05T00:04:31.300Z,17.20
2022-09-05T00:07:58.162Z,17.30
2022-09-05T00:10:36.174Z,17.20
2022-09-05T00:13:09.890Z,17.20
2022-09-05T00:16:08.612Z,17.10
2022-09-05T00:22:54.233Z,17.10
2022-09-05T00:24:35.364Z,17.00
2022-09-05T00:24:54.733Z,17.10
2022-09-05T00:27:37.267Z,17.10
2022-09-05T00:31:07.466Z,17.10
2022-09-05T00:33:56.794Z,17.10
2022-09-05T00:36:54.706Z,17.00
2022-09-05T00:39:34.448Z,17.10
2022-09-05T00:42:07.837Z,17.00
2022-09-05T00:44:38.319Z,17.00
2022-09-05T00:47:35.933Z,17.00
2022-09-05T00:50:11.157Z,17.10
2022-09-05T00:53:06.694Z,17.10
2022-09-05T00:55:46.595Z,17.00
2022-09-05T00:58:42.430Z,17.10
2022-09-05T01:01:37.383Z,17.00
2022-09-05T01:04:47.237Z,17.00
2022-09-05T01:07:38.014Z,17.00
2022-09-05T01:10:26.303Z,16.90
2022-09-05T01:13:21.505Z,16.90
2022-09-05T01:16:16.018Z,16.90
2022-09-05T01:18:59.194Z,16.80
2022-09-05T01:21:39.026Z,16.80
2022-09-05T01:24:27.977Z,16.70
2022-09-05T01:27:26.631Z,16.70
2022-09-05T01:30:23.061Z,16.60
2022-09-05T01:33:23.037Z,16.60
2022-09-05T01:36:07.691Z,16.50
2022-09-05T01:40:10.396Z,16.40
2022-09-05T01:42:08.262Z,16.40
2022-09-05T01:45:03.380Z,16.30
2022-09-05T01:48:01.330Z,16.20
2022-09-05T01:50:56.340Z,16.10
2022-09-05T01:53:35.335Z,16.10
2022-09-05T01:56:17.103Z,16.10
2022-09-05T01:59:10.990Z,16.00
2022-09-05T02:02:13.128Z,16.00
2022-09-05T02:04:43.628Z,16.00
2022-09-05T02:07:48.848Z,16.00
2022-09-05T02:10:37.577Z,16.00
2022-09-05T02:13:35.131Z,16.00
2022-09-05T02:16:19.962Z,16.00
2022-09-05T02:19:12.057Z,16.00
2022-09-05T02:21:56.019Z,16.10
2022-09-05T02:24:35.347Z,16.10
2022-09-05T02:27:40.241Z,16.10
2022-09-05T02:30:18.542Z,16.10
2022-09-05T02:32:55.428Z,16.10
2022-09-05T02:35:29.897Z,16.10
2022-09-05T02:42:49.856Z,16.10
2022-09-05T02:45:07.951Z,16.10
2022-09-05T02:45:10.845Z,16.20
2022-09-05T02:47:12.847Z,16.10
2022-09-05T02:52:27.593Z,16.10
2022-09-05T02:57:26.037Z,16.10
2022-09-05T02:57:33.494Z,16.00
2022-09-05T02:59:36.857Z,15.90
2022-09-05T03:02:26.065Z,15.90
2022-09-05T03:05:04.554Z,15.90
2022-09-05T03:08:13.231Z,15.90
2022-09-05T03:11:38.795Z,15.90
2022-09-05T03:14:23.170Z,15.80
2022-09-05T03:17:04.864Z,15.80
2022-09-05T03:19:46.249Z,15.80
2022-09-05T03:22:37.138Z,15.80
2022-09-05T03:25:40.884Z,15.80
2022-09-05T03:28:41.317Z,15.80
2022-09-05T03:31:14.848Z,15.70
2022-09-05T03:33:55.043Z,15.70
2022-09-05T03:36:40.461Z,15.70
2022-09-05T03:39:25.467Z,15.70
2022-09-05T03:42:15.914Z,15.70
2022-09-05T03:44:48.521Z,15.80
2022-09-05T03:47:42.883Z,15.80
2022-09-05T03:57:01.777Z,15.80
2022-09-05T03:57:06.386Z,15.80
2022-09-05T03:57:15.137Z,15.80
2022-09-05T03:59:43.499Z,15.80
2022-09-05T04:03:47.159Z,15.90
2022-09-05T04:08:25.939Z,15.80
2022-09-05T04:08:50.369Z,15.80
2022-09-05T04:11:21.034Z,15.80
2022-09-05T04:14:05.590Z,15.70
2022-09-05T04:16:54.013Z,15.70
2022-09-05T04:20:00.756Z,15.70
2022-09-05T04:22:48.489Z,15.70
2022-09-05T04:26:10.985Z,15.60
2022-09-05T04:29:14.959Z,15.60
2022-09-05T04:31:45.633Z,15.60
2022-09-05T04:34:52.288Z,15.50
2022-09-05T04:37:48.226Z,15.60
2022-09-05T04:40:42.135Z,15.60
2022-09-05T04:43:20.226Z,15.60
2022-09-05T04:45:53.553Z,15.60
2022-09-05T04:48:27.817Z,15.60
2022-09-05T04:51:11.585Z,15.60
2022-09-05T04:54:01.060Z,15.60
2022-09-05T04:56:32.572Z,15.60
2022-09-05T05:01:31.135Z,15.60
2022-09-05T05:06:00.708Z,15.70
2022-09-05T05:06:16.666Z,15.70
2022-09-05T05:08:01.857Z,15.80
2022-09-05T05:13:59.672Z,15.80
2022-09-05T05:17:56.692Z,15.80
2022-09-05T05:18:12.193Z,15.80
2022-09-05T05:20:39.689Z,15.90
2022-09-05T05:22:51.525Z,15.90
2022-09-05T05:25:18.395Z,16.00
2022-09-05T05:27:54.402Z,16.00
2022-09-05T05:30:32.266Z,16.00
2022-09-05T05:33:02.853Z,16.10
2022-09-05T05:35:33.665Z,16.10
2022-09-05T05:38:17.562Z,16.30
2022-09-05T05:40:51.478Z,16.40
2022-09-05T05:43:28.118Z,16.40
2022-09-05T05:45:58.963Z,16.50
2022-09-05T05:48:40.933Z,16.60
2022-09-05T05:51:38.329Z,16.70
2022-09-05T05:54:26.409Z,16.80
2022-09-05T05:57:17.520Z,16.90
2022-09-05T06:00:03.051Z,17.00
2022-09-05T06:03:25.691Z,17.10
2022-09-05T06:06:07.789Z,17.20
2022-09-05T06:12:06.935Z,17.30
2022-09-05T06:15:05.738Z,17.40
2022-09-05T06:15:38.894Z,17.60
2022-09-05T06:18:30.427Z,17.70
2022-09-05T06:22:06.199Z,17.80
2022-09-05T06:24:34.910Z,17.90
2022-09-05T06:27:32.559Z,18.00
2022-09-05T06:30:19.022Z,18.10
2022-09-05T06:32:58.701Z,18.30
2022-09-05T06:35:28.889Z,18.40
2022-09-05T06:38:20.186Z,18.40
2022-09-05T06:41:25.292Z,18.60
2022-09-05T06:44:15.131Z,18.70
2022-09-05T06:47:05.779Z,18.90
2022-09-05T06:49:46.017Z,19.30
2022-09-05T06:52:38.223Z,20.10
2022-09-05T06:55:13.953Z,21.20
2022-09-05T06:58:00.815Z,22.10
2022-09-05T07:00:38.897Z,22.90
2022-09-05T07:03:22.778Z,24.30
2022-09-05T07:06:19.690Z,25.80
2022-09-05T07:09:15.909Z,27.00
2022-09-05T07:12:23.605Z,28.40
2022-09-05T07:15:08.607Z,30.40
2022-09-05T07:18:10.923Z,32.00
2022-09-05T07:21:16.458Z,33.60
2022-09-05T07:24:08.978Z,35.10
2022-09-05T07:26:51.774Z,36.50
2022-09-05T07:29:33.109Z,37.60
2022-09-05T07:32:02.586Z,37.40
2022-09-05T07:34:34.231Z,36.90
2022-09-05T07:37:19.108Z,36.50
2022-09-05T07:40:11.309Z,35.90
2022-09-05T07:43:10.164Z,35.60
2022-09-05T07:46:01.146Z,36.50
2022-09-05T07:48:34.948Z,36.80
2022-09-05T07:56:46.499Z,37.00
2022-09-05T07:57:06.275Z,36.40
2022-09-05T08:00:06.441Z,35.30
2022-09-05T08:02:33.431Z,35.60
2022-09-05T08:05:06.817Z,37.00
2022-09-05T08:07:47.925Z,38.30
2022-09-05T08:10:35.623Z,38.70
2022-09-05T08:13:27.480Z,39.20
2022-09-05T08:16:13.111Z,40.40
2022-09-05T08:18:46.023Z,41.50
2022-09-05T08:21:41.901Z,42.40
2022-09-05T08:24:13.165Z,43.00
2022-09-05T08:26:47.446Z,43.50
2022-09-05T08:29:30.995Z,44.00
2022-09-05T08:32:00.717Z,44.20
2022-09-05T08:34:44.959Z,44.50
2022-09-05T08:37:21.023Z,44.70
2022-09-05T08:40:09.650Z,44.00
2022-09-05T08:43:55.995Z,43.90
2022-09-05T08:46:39.568Z,44.10
2022-09-05T08:49:11.262Z,44.10
2022-09-05T08:51:53.851Z,43.90
2022-09-05T08:54:34.838Z,43.70
2022-09-05T08:57:12.131Z,43.60
2022-09-05T09:00:19.249Z,43.30
2022-09-05T09:02:54.998Z,43.00
2022-09-05T09:06:13.523Z,42.60
2022-09-05T09:09:09.255Z,41.90
2022-09-05T09:11:45.029Z,40.90
2022-09-05T09:14:32.616Z,40.00
2022-09-05T09:17:26.674Z,39.20
2022-09-05T09:20:33.422Z,38.40
2022-09-05T09:23:08.927Z,37.60
2022-09-05T09:26:15.840Z,36.80
2022-09-05T09:28:49.856Z,35.70
2022-09-05T09:31:42.896Z,35.00
2022-09-05T09:34:49.394Z,34.60
2022-09-05T09:37:50.576Z,34.20
2022-09-05T09:40:52.295Z,33.90
2022-09-05T09:43:57.459Z,33.40
2022-09-05T09:46:27.383Z,33.30
2022-09-05T09:49:25.994Z,33.30
2022-09-05T09:52:02.329Z,33.00
2022-09-05T09:54:53.802Z,33.20
2022-09-05T09:57:44.919Z,33.70
2022-09-05T10:00:23.915Z,34.00
2022-09-05T10:07:26.923Z,33.80
2022-09-05T10:10:34.810Z,33.20
2022-09-05T10:10:49.593Z,33.00
2022-09-05T10:12:38.775Z,33.50
2022-09-05T10:15:31.673Z,33.90
2022-09-05T10:18:24.485Z,34.50
2022-09-05T10:21:25.620Z,34.50
2022-09-05T10:24:13.962Z,35.10
2022-09-05T10:27:06.069Z,35.10
2022-09-05T10:29:43.717Z,35.20
2022-09-05T10:35:07.967Z,35.50
2022-09-05T10:35:28.970Z,35.70
2022-09-05T10:38:12.325Z,35.70
2022-09-05T10:40:46.350Z,35.60
2022-09-05T10:43:32.344Z,35.90
2022-09-05T10:46:06.466Z,36.10
2022-09-05T10:49:03.282Z,36.30
2022-09-05T10:51:38.702Z,36.50
2022-09-05T10:54:31.242Z,36.40
2022-09-05T10:57:31.846Z,36.70
2022-09-05T11:02:24.316Z,36.70
2022-09-05T11:03:00.925Z,36.60
2022-09-05T11:05:38.556Z,36.90
2022-09-05T11:08:11.057Z,36.80
2022-09-05T11:10:57.933Z,36.50
2022-09-05T11:13:49.902Z,35.80
2022-09-05T11:16:25.855Z,35.30
2022-09-05T11:19:00.098Z,35.10
2022-09-05T11:21:38.435Z,35.30
2022-09-05T11:24:46.807Z,35.30
2022-09-05T11:27:46.794Z,35.50
2022-09-05T11:30:30.493Z,36.10
2022-09-05T11:39:47.755Z,36.00
2022-09-05T11:39:48.261Z,35.90
2022-09-05T11:40:06.455Z,36.10
2022-09-05T11:42:17.831Z,36.50
2022-09-05T11:45:10.112Z,36.10
2022-09-05T11:48:03.090Z,36.20
2022-09-05T11:50:57.301Z,36.10
2022-09-05T11:53:50.819Z,36.50
2022-09-05T11:56:44.065Z,36.80
2022-09-05T11:59:45.020Z,37.40
2022-09-05T12:02:37.639Z,37.40
2022-09-05T12:05:48.478Z,37.50
2022-09-05T12:08:29.938Z,37.70
2022-09-05T12:11:10.587Z,37.70
2022-09-05T12:13:47.019Z,37.20
2022-09-05T12:16:31.446Z,36.60
2022-09-05T12:19:29.836Z,36.70
2022-09-05T12:22:16.500Z,36.50
2022-09-05T12:25:25.711Z,36.60
2022-09-05T12:27:47.418Z,36.70
2022-09-05T12:30:36.416Z,37.20
2022-09-05T12:36:09.703Z,37.10
2022-09-05T12:40:46.172Z,36.90
2022-09-05T12:40:58.484Z,37.20
2022-09-05T12:42:56.051Z,36.50
2022-09-05T12:45:34.471Z,36.40
2022-09-05T12:48:39.110Z,36.60
2022-09-05T12:51:45.303Z,36.60
2022-09-05T12:54:24.823Z,36.40
2022-09-05T12:59:52.517Z,36.50
2022-09-05T13:02:57.343Z,36.80
2022-09-05T13:03:27.858Z,36.90
2022-09-05T13:06:25.127Z,37.30
2022-09-05T13:08:59.928Z,37.50
2022-09-05T13:14:47.605Z,37.40
2022-09-05T13:14:52.746Z,36.50
2022-09-05T13:17:14.189Z,35.80
2022-09-05T13:19:51.249Z,35.60
2022-09-05T13:22:23.453Z,35.60
2022-09-05T13:25:07.471Z,35.90
2022-09-05T13:27:42.295Z,36.00
2022-09-05T13:32:58.836Z,36.30
2022-09-05T13:38:03.626Z,36.40
2022-09-05T13:38:19.071Z,36.70
2022-09-05T13:39:07.755Z,36.80
2022-09-05T13:41:48.740Z,36.70
2022-09-05T13:44:27.571Z,36.50
2022-09-05T13:47:28.777Z,36.40
2022-09-05T13:50:05.665Z,36.50
2022-09-05T13:52:34.522Z,36.50
2022-09-05T13:55:16.197Z,36.50
2022-09-05T13:57:48.045Z,36.60
2022-09-05T14:00:42.219Z,36.60
2022-09-05T14:03:38.987Z,36.40
2022-09-05T14:06:46.670Z,36.50
2022-09-05T14:09:39.775Z,36.30
2022-09-05T14:12:15.192Z,36.00
2022-09-05T14:15:14.638Z,35.80
2022-09-05T14:17:59.626Z,35.60
2022-09-05T14:20:50.204Z,35.40
2022-09-05T14:23:18.693Z,35.30
2022-09-05T14:25:53.359Z,34.50
2022-09-05T14:28:30.976Z,34.40
2022-09-05T14:36:14.989Z,34.50
2022-09-05T14:38:00.571Z,34.70
2022-09-05T14:38:09.314Z,34.40
2022-09-05T14:41:11.516Z,34.40
2022-09-05T14:44:05.584Z,34.50
2022-09-05T14:46:50.734Z,34.40
2022-09-05T14:49:54.378Z,34.40
2022-09-05T14:52:26.743Z,34.30
2022-09-05T15:02:55.114Z,33.90
2022-09-05T15:02:58.133Z,33.90
2022-09-05T15:06:37.651Z,34.10
2022-09-05T15:12:14.943Z,34.10
2022-09-05T15:12:27.749Z,33.90
2022-09-05T15:15:00.486Z,33.90
2022-09-05T15:17:28.272Z,33.80
2022-09-05T15:20:06.399Z,33.70
2022-09-05T15:22:37.092Z,33.50
2022-09-05T15:25:20.131Z,33.20
2022-09-05T15:27:49.528Z,32.90
2022-09-05T15:30:35.398Z,32.90
2022-09-05T15:33:25.320Z,33.00
2022-09-05T15:35:52.223Z,33.00
2022-09-05T15:38:55.475Z,33.10
2022-09-05T15:41:26.871Z,33.10
2022-09-05T15:43:59.657Z,33.10
2022-09-05T15:46:39.242Z,33.00
2022-09-05T15:49:22.195Z,32.90
2022-09-05T15:51:56.896Z,32.70
2022-09-05T15:54:37.902Z,32.70
2022-09-05T15:57:09.046Z,32.60
2022-09-05T15:59:49.639Z,32.60
2022-09-05T16:02:23.310Z,32.50
2022-09-05T16:10:26.829Z,32.50
2022-09-05T16:10:48.603Z,32.50
2022-09-05T16:11:06.781Z,32.30
2022-09-05T16:13:51.921Z,32.10
2022-09-05T16:20:15.044Z,32.00
2022-09-05T16:23:13.956Z,31.90
2022-09-05T16:23:32.505Z,31.80
2022-09-05T16:25:00.228Z,31.80
2022-09-05T16:28:11.747Z,31.80
2022-09-05T16:30:39.832Z,31.70
2022-09-05T16:33:12.579Z,31.70
2022-09-05T16:35:47.783Z,31.60
2022-09-05T16:38:49.578Z,31.50
2022-09-05T16:41:27.546Z,31.20
2022-09-05T16:44:04.155Z,31.00
2022-09-05T16:47:00.766Z,30.80
2022-09-05T16:49:42.359Z,30.60
2022-09-05T16:52:17.275Z,30.40
2022-09-05T16:55:08.501Z,30.20
2022-09-05T16:57:37.730Z,30.00
2022-09-05T17:00:07.909Z,29.80
2022-09-05T17:03:11.528Z,29.50
2022-09-05T17:05:46.161Z,29.30
2022-09-05T17:08:16.715Z,29.00
2022-09-05T17:10:50.692Z,28.80
2022-09-05T17:13:42.358Z,28.60
2022-09-05T17:16:14.005Z,28.30
2022-09-05T17:18:42.312Z,28.00
2022-09-05T17:21:12.797Z,27.80
2022-09-05T17:29:18.154Z,27.70
2022-09-05T17:29:32.182Z,27.60
2022-09-05T17:32:40.102Z,27.20
2022-09-05T17:35:17.483Z,27.00
2022-09-05T17:38:11.216Z,26.90
2022-09-05T17:41:12.540Z,26.70
2022-09-05T17:43:40.823Z,26.50
2022-09-05T17:46:26.285Z,26.20
2022-09-05T17:49:18.648Z,26.20
2022-09-05T17:51:50.855Z,26.00
2022-09-05T17:54:37.642Z,25.80
2022-09-05T17:57:28.965Z,25.70
2022-09-05T18:00:00.155Z,25.50
2022-09-05T18:02:32.634Z,25.40
2022-09-05T18:05:01.248Z,25.30
2022-09-05T18:07:29.262Z,25.10
2022-09-05T18:10:12.081Z,25.10
2022-09-05T18:13:13.742Z,24.90
2022-09-05T18:15:32.490Z,24.70
2022-09-05T18:18:05.807Z,24.60
2022-09-05T18:21:12.206Z,24.50
2022-09-05T18:23:57.794Z,24.30
2022-09-05T18:26:26.510Z,24.10
2022-09-05T18:29:57.316Z,24.00
2022-09-05T18:32:11.894Z,24.00
2022-09-05T18:34:40.449Z,23.80
2022-09-05T18:37:35.525Z,23.80
2022-09-05T18:40:16.654Z,23.80
2022-09-05T18:43:10.464Z,23.70
2022-09-05T18:45:52.538Z,23.50
2022-09-05T18:48:43.166Z,23.30
2022-09-05T18:51:17.093Z,23.30
2022-09-05T18:53:47.414Z,23.20
2022-09-05T18:56:27.444Z,23.10
2022-09-05T18:59:11.546Z,23.00
2022-09-05T19:01:45.305Z,23.00
2022-09-05T19:04:38.932Z,22.90
2022-09-05T19:07:11.734Z,22.80
2022-09-05T19:09:56.720Z,22.70
2022-09-05T19:12:32.146Z,22.60
2022-09-05T19:15:26.050Z,22.50
2022-09-05T19:18:26.468Z,22.50
2022-09-05T19:21:12.021Z,22.40
2022-09-05T19:23:50.810Z,22.30
2022-09-05T19:26:18.334Z,22.10
2022-09-05T19:36:48.647Z,22.10
2022-09-05T19:36:56.963Z,22.10
2022-09-05T19:37:22.691Z,21.90
2022-09-05T19:37:25.452Z,21.90
2022-09-05T19:45:54.318Z,21.90
2022-09-05T19:47:37.065Z,21.80
2022-09-05T19:47:37.945Z,21.80
2022-09-05T19:48:25.745Z,21.70
2022-09-05T19:50:57.635Z,21.60
2022-09-05T19:53:24.951Z,21.60
2022-09-05T19:55:53.626Z,21.40
2022-09-05T19:58:22.951Z,21.20
2022-09-05T20:01:02.713Z,21.00
2022-09-05T20:03:38.871Z,20.80
2022-09-05T20:06:28.924Z,20.60
2022-09-05T20:09:09.213Z,20.40
2022-09-05T20:11:45.223Z,20.50
2022-09-05T20:14:20.637Z,20.50
2022-09-05T20:16:49.691Z,20.40
2022-09-05T20:19:34.510Z,20.50
2022-09-05T20:22:46.754Z,20.40
2022-09-05T20:25:04.042Z,20.40
2022-09-05T20:27:30.864Z,20.40
2022-09-05T20:30:04.735Z,20.30
2022-09-05T20:32:41.055Z,20.40
2022-09-05T20:40:22.646Z,20.40
2022-09-05T20:43:18.672Z,20.20
2022-09-05T20:43:18.922Z,20.10
2022-09-05T20:44:17.205Z,20.00
2022-09-05T20:50:44.427Z,19.90
2022-09-05T20:54:16.971Z,19.70
2022-09-05T20:54:19.756Z,19.60
2022-09-05T20:55:41.514Z,19.40
2022-09-05T20:58:11.842Z,19.50
2022-09-05T21:01:21.555Z,19.40
2022-09-05T21:03:36.470Z,19.50
2022-09-05T21:06:22.510Z,19.60
2022-09-05T21:08:51.211Z,19.70
2022-09-05T21:11:28.114Z,19.70
2022-09-05T21:13:59.276Z,19.60
2022-09-05T21:16:45.114Z,19.60
2022-09-05T21:19:33.272Z,19.50
2022-09-05T21:22:16.524Z,19.50
2022-09-05T21:24:44.162Z,19.40
2022-09-05T21:27:22.917Z,19.50
2022-09-05T21:29:57.329Z,19.50
2022-09-05T21:32:27.956Z,19.50
2022-09-05T21:35:33.771Z,19.50
2022-09-05T21:37:53.550Z,19.40
2022-09-05T21:40:21.282Z,19.40
2022-09-05T21:43:40.887Z,19.20
2022-09-05T21:47:47.284Z,19.20
2022-09-05T21:48:24.315Z,19.10
2022-09-05T21:50:52.426Z,19.00
2022-09-05T21:57:16.863Z,19.10
2022-09-05T21:59:26.231Z,19.00
2022-09-05T21:59:28.370Z,19.10
2022-09-05T22:01:54.633Z,19.00
2022-09-05T22:04:21.996Z,19.00
2022-09-05T22:06:49.611Z,18.80
2022-09-05T22:09:23.567Z,18.70
2022-09-05T22:11:51.217Z,18.70
2022-09-05T22:14:19.841Z,18.70
2022-09-05T22:16:50.078Z,18.70
2022-09-05T22:19:22.933Z,18.70
2022-09-05T22:21:53.196Z,18.70
2022-09-05T22:24:21.202Z,18.70
2022-09-05T22:27:12.335Z,18.70
2022-09-05T22:29:40.082Z,18.70
2022-09-05T22:32:07.366Z,18.70
2022-09-05T22:34:34.179Z,18.60
2022-09-05T22:37:00.835Z,18.50
2022-09-05T22:39:36.989Z,18.50
2022-09-05T22:42:10.279Z,18.40
2022-09-05T22:44:39.110Z,18.30
2022-09-05T22:47:10.091Z,18.20
2022-09-05T22:49:37.377Z,18.20
2022-09-05T22:52:05.811Z,18.10
2022-09-05T22:54:33.068Z,18.10
2022-09-05T22:56:59.744Z,18.10
2022-09-05T22:59:26.475Z,18.10
2022-09-05T23:01:53.174Z,18.10
2022-09-05T23:04:19.985Z,18.10
2022-09-05T23:06:46.707Z,18.10
2022-09-05T23:09:13.388Z,18.20
2022-09-05T23:11:41.071Z,18.20
2022-09-05T23:14:07.754Z,18.20
2022-09-05T23:16:34.659Z,18.20
2022-09-05T23:19:01.476Z,18.20
2022-09-05T23:21:28.178Z,18.10
2022-09-05T23:23:54.859Z,18.20
2022-09-05T23:26:22.306Z,18.10
2022-09-05T23:28:49.059Z,18.10
2022-09-05T23:31:16.028Z,18.10
2022-09-05T23:33:43.047Z,18.00
2022-09-05T23:36:13.490Z,18.00
2022-09-05T23:38:42.425Z,18.00
2022-09-05T23:41:11.931Z,18.00
2022-09-05T23:43:38.606Z,18.00
2022-09-05T23:46:05.517Z,18.00
2022-09-05T23:48:32.329Z,18.00
2022-09-05T23:51:05.865Z,18.00
2022-09-05T23:53:32.646Z,18.00
2022-09-05T23:56:00.861Z,18.10
2022-09-05T23:58:29.085Z,18.00
